sensor_id;sensor_type;location;lat;lon;timestamp;pressure;altitude;pressure_sealevel;temperature;humidity
69535;BME280;56754;51.568;5.048;2022-11-15T00:00:47;100779.13;;;11.51;69.15
69535;BME280;56754;51.568;5.048;2022-11-15T00:03:14;100779.13;;;11.51;69.17
69535;BME280;56754;51.568;5.048;2022-11-15T00:05:39;100773.78;;;11.51;69.09
69535;BME280;56754;51.568;5.048;2022-11-15T00:08:05;100776.47;;;11.51;69.27
69535;BME280;56754;51.568;5.048;2022-11-15T00:10:30;100779.91;;;11.52;69.14
69535;BME280;56754;51.568;5.048;2022-11-15T00:12:55;100770.00;;;11.52;69.34
69535;BME280;56754;51.568;5.048;2022-11-15T00:15:20;100771.56;;;11.53;69.32
69535;BME280;56754;51.568;5.048;2022-11-15T00:17:48;100773.16;;;11.54;69.33
69535;BME280;56754;51.568;5.048;2022-11-15T00:20:14;100765.91;;;11.55;69.38
69535;BME280;56754;51.568;5.048;2022-11-15T00:22:40;100765.91;;;11.55;69.37
69535;BME280;56754;51.568;5.048;2022-11-15T00:25:05;100768.59;;;11.55;69.30
69535;BME280;56754;51.568;5.048;2022-11-15T00:27:31;100756.75;;;11.56;69.12
69535;BME280;56754;51.568;5.048;2022-11-15T00:29:56;100757.53;;;11.56;69.33
69535;BME280;56754;51.568;5.048;2022-11-15T00:32:21;100749.50;;;11.56;69.54
69535;BME280;56754;51.568;5.048;2022-11-15T00:34:48;100754.88;;;11.56;69.59
69535;BME280;56754;51.568;5.048;2022-11-15T00:37:14;100749.22;;;11.58;69.48
69535;BME280;56754;51.568;5.048;2022-11-15T00:39:39;100754.56;;;11.58;69.54
69535;BME280;56754;51.568;5.048;2022-11-15T00:42:04;100744.63;;;11.58;69.48
69535;BME280;56754;51.568;5.048;2022-11-15T00:44:29;100741.97;;;11.58;69.55
69535;BME280;56754;51.568;5.048;2022-11-15T00:46:55;100743.53;;;11.59;69.53
69535;BME280;56754;51.568;5.048;2022-11-15T00:49:20;100736.31;;;11.60;69.39
69535;BME280;56754;51.568;5.048;2022-11-15T00:51:45;100730.63;;;11.61;69.58
69535;BME280;56754;51.568;5.048;2022-11-15T00:54:10;100738.66;;;11.61;69.55
69535;BME280;56754;51.568;5.048;2022-11-15T00:56:36;100737.56;;;11.63;69.77
69535;BME280;56754;51.568;5.048;2022-11-15T00:59:01;100735.19;;;11.61;69.71
69535;BME280;56754;51.568;5.048;2022-11-15T01:01:26;100734.88;;;11.63;69.67
69535;BME280;56754;51.568;5.048;2022-11-15T01:03:51;100728.72;;;11.62;69.67
69535;BME280;56754;51.568;5.048;2022-11-15T01:06:17;100738.00;;;11.65;69.77
69535;BME280;56754;51.568;5.048;2022-11-15T01:08:42;100742.59;;;11.64;69.74
69535;BME280;56754;51.568;5.048;2022-11-15T01:11:11;100738.78;;;11.65;69.87
69535;BME280;56754;51.568;5.048;2022-11-15T01:13:38;100734.25;;;11.66;69.76
69535;BME280;56754;51.568;5.048;2022-11-15T01:16:13;100741.94;;;11.67;69.71
69535;BME280;56754;51.568;5.048;2022-11-15T01:18:39;100740.38;;;11.66;69.71
69535;BME280;56754;51.568;5.048;2022-11-15T01:21:13;100733.91;;;11.67;69.75
69535;BME280;56754;51.568;5.048;2022-11-15T01:23:39;100730.13;;;11.68;69.75
69535;BME280;56754;51.568;5.048;2022-11-15T01:26:07;100733.59;;;11.69;69.76
69535;BME280;56754;51.568;5.048;2022-11-15T01:28:34;100740.53;;;11.70;69.86
69535;BME280;56754;51.568;5.048;2022-11-15T01:31:00;100731.72;;;11.69;69.87
69535;BME280;56754;51.568;5.048;2022-11-15T01:33:28;100727.91;;;11.70;69.95
69535;BME280;56754;51.568;5.048;2022-11-15T01:35:54;100724.16;;;11.71;69.96
69535;BME280;56754;51.568;5.048;2022-11-15T01:38:21;100721.47;;;11.71;69.90
69535;BME280;56754;51.568;5.048;2022-11-15T01:40:47;100728.41;;;11.72;69.89
69535;BME280;56754;51.568;5.048;2022-11-15T01:43:39;100729.97;;;11.73;70.02
69535;BME280;56754;51.568;5.048;2022-11-15T01:48:58;100703.97;;;11.74;69.89
69535;BME280;56754;51.568;5.048;2022-11-15T01:51:26;100706.34;;;11.75;69.87
69535;BME280;56754;51.568;5.048;2022-11-15T01:53:58;100705.56;;;11.75;69.73
69535;BME280;56754;51.568;5.048;2022-11-15T01:56:30;100700.66;;;11.77;69.97
69535;BME280;56754;51.568;5.048;2022-11-15T01:59:01;100707.59;;;11.78;69.86
69535;BME280;56754;51.568;5.048;2022-11-15T02:01:28;100703.03;;;11.78;69.96
69535;BME280;56754;51.568;5.048;2022-11-15T02:03:59;100693.56;;;11.81;69.92
69535;BME280;56754;51.568;5.048;2022-11-15T02:06:27;100690.09;;;11.80;69.86
69535;BME280;56754;51.568;5.048;2022-11-15T02:08:52;100688.22;;;11.81;69.76
69535;BME280;56754;51.568;5.048;2022-11-15T02:11:19;100687.09;;;11.82;69.74
69535;BME280;56754;51.568;5.048;2022-11-15T02:13:44;100690.25;;;11.84;69.93
69535;BME280;56754;51.568;5.048;2022-11-15T02:19:02;100690.75;;;11.86;69.75
69535;BME280;56754;51.568;5.048;2022-11-15T02:27:31;100669.78;;;11.88;69.74
69535;BME280;56754;51.568;5.048;2022-11-15T02:33:07;100680.97;;;11.90;69.72
69535;BME280;56754;51.568;5.048;2022-11-15T02:38:12;100670.72;;;11.92;69.89
69535;BME280;56754;51.568;5.048;2022-11-15T02:40:56;100667.69;;;11.94;69.72
69535;BME280;56754;51.568;5.048;2022-11-15T02:43:59;100671.16;;;11.94;69.90
69535;BME280;56754;51.568;5.048;2022-11-15T02:48:51;100666.28;;;11.96;69.90
69535;BME280;56754;51.568;5.048;2022-11-15T02:51:17;100656.69;;;11.95;69.74
69535;BME280;56754;51.568;5.048;2022-11-15T02:53:42;100651.75;;;11.97;69.85
69535;BME280;56754;51.568;5.048;2022-11-15T02:56:09;100650.69;;;11.98;69.84
69535;BME280;56754;51.568;5.048;2022-11-15T02:59:00;100654.91;;;11.99;69.99
69535;BME280;56754;51.568;5.048;2022-11-15T03:11:44;100657.72;;;12.03;69.89
69535;BME280;56754;51.568;5.048;2022-11-15T03:14:35;100653.97;;;12.04;69.77
69535;BME280;56754;51.568;5.048;2022-11-15T03:19:53;100653.63;;;12.05;69.98
69535;BME280;56754;51.568;5.048;2022-11-15T03:22:22;100655.19;;;12.06;69.87
69535;BME280;56754;51.568;5.048;2022-11-15T03:24:52;100658.69;;;12.07;69.81
69535;BME280;56754;51.568;5.048;2022-11-15T03:27:23;100650.63;;;12.07;69.52
69535;BME280;56754;51.568;5.048;2022-11-15T03:29:56;100649.53;;;12.08;69.69
69535;BME280;56754;51.568;5.048;2022-11-15T03:32:25;100651.84;;;12.10;69.90
69535;BME280;56754;51.568;5.048;2022-11-15T03:37:35;100636.59;;;12.10;69.74
69535;BME280;56754;51.568;5.048;2022-11-15T03:40:03;100640.06;;;12.11;70.13
69535;BME280;56754;51.568;5.048;2022-11-15T03:43:52;100632.00;;;12.11;69.70
69535;BME280;56754;51.568;5.048;2022-11-15T03:45:51;100642.72;;;12.11;69.78
69535;BME280;56754;51.568;5.048;2022-11-15T03:48:27;100637.38;;;12.11;69.87
69535;BME280;56754;51.568;5.048;2022-11-15T03:50:55;100634.69;;;12.11;69.68
69535;BME280;56754;51.568;5.048;2022-11-15T03:53:20;100642.72;;;12.11;69.66
69535;BME280;56754;51.568;5.048;2022-11-15T03:55:45;100648.09;;;12.11;69.61
69535;BME280;56754;51.568;5.048;2022-11-15T03:58:11;100646.50;;;12.10;69.83
69535;BME280;56754;51.568;5.048;2022-11-15T04:00:38;100641.16;;;12.10;69.94
69535;BME280;56754;51.568;5.048;2022-11-15T04:03:03;100641.94;;;12.10;69.90
69535;BME280;56754;51.568;5.048;2022-11-15T04:05:28;100652.66;;;12.10;69.88
69535;BME280;56754;51.568;5.048;2022-11-15T04:07:53;100653.44;;;12.11;69.94
69535;BME280;56754;51.568;5.048;2022-11-15T04:10:19;100648.09;;;12.11;69.81
69535;BME280;56754;51.568;5.048;2022-11-15T04:12:45;100645.41;;;12.11;69.90
69535;BME280;56754;51.568;5.048;2022-11-15T04:15:13;100648.88;;;12.11;69.80
69535;BME280;56754;51.568;5.048;2022-11-15T04:17:42;100640.06;;;12.11;69.95
69535;BME280;56754;51.568;5.048;2022-11-15T04:22:35;100645.06;;;12.12;70.01
69535;BME280;56754;51.568;5.048;2022-11-15T04:25:00;100642.41;;;12.12;69.89
69535;BME280;56754;51.568;5.048;2022-11-15T04:27:26;100655.00;;;12.12;69.90
69535;BME280;56754;51.568;5.048;2022-11-15T04:29:51;100645.88;;;12.13;69.90
69535;BME280;56754;51.568;5.048;2022-11-15T04:32:16;100656.59;;;12.13;69.85
69535;BME280;56754;51.568;5.048;2022-11-15T04:34:41;100658.16;;;12.14;70.13
69535;BME280;56754;51.568;5.048;2022-11-15T04:37:08;100658.94;;;12.14;69.98
69535;BME280;56754;51.568;5.048;2022-11-15T04:39:33;100659.72;;;12.15;69.92
69535;BME280;56754;51.568;5.048;2022-11-15T04:41:58;100653.59;;;12.14;69.98
69535;BME280;56754;51.568;5.048;2022-11-15T04:44:24;100655.94;;;12.16;70.10
69535;BME280;56754;51.568;5.048;2022-11-15T04:46:50;100646.31;;;12.15;70.08
69535;BME280;56754;51.568;5.048;2022-11-15T04:49:16;100652.16;;;12.17;70.19
69535;BME280;56754;51.568;5.048;2022-11-15T04:51:41;100654.84;;;12.17;70.01
69535;BME280;56754;51.568;5.048;2022-11-15T04:54:06;100650.25;;;12.17;70.00
69535;BME280;56754;51.568;5.048;2022-11-15T04:56:31;100651.03;;;12.18;69.89
69535;BME280;56754;51.568;5.048;2022-11-15T04:58:57;100650.72;;;12.19;69.84
69535;BME280;56754;51.568;5.048;2022-11-15T05:01:22;100636.56;;;12.19;69.83
69535;BME280;56754;51.568;5.048;2022-11-15T05:03:47;100644.25;;;12.20;69.88
69535;BME280;56754;51.568;5.048;2022-11-15T05:06:13;100638.88;;;12.20;69.96
69535;BME280;56754;51.568;5.048;2022-11-15T05:08:38;100637.78;;;12.21;70.02
69535;BME280;56754;51.568;5.048;2022-11-15T05:11:03;100634.00;;;12.22;69.89
69535;BME280;56754;51.568;5.048;2022-11-15T05:13:28;100636.69;;;12.22;70.11
69535;BME280;56754;51.568;5.048;2022-11-15T05:15:54;100639.34;;;12.22;70.11
69535;BME280;56754;51.568;5.048;2022-11-15T05:18:19;100637.47;;;12.23;69.84
69535;BME280;56754;51.568;5.048;2022-11-15T05:20:44;100642.81;;;12.23;70.34
69535;BME280;56754;51.568;5.048;2022-11-15T05:23:09;100637.13;;;12.24;70.22
69535;BME280;56754;51.568;5.048;2022-11-15T05:25:36;100633.66;;;12.24;70.29
69535;BME280;56754;51.568;5.048;2022-11-15T05:28:01;100637.13;;;12.24;70.40
69535;BME280;56754;51.568;5.048;2022-11-15T05:30:26;100637.94;;;12.25;70.27
69535;BME280;56754;51.568;5.048;2022-11-15T05:32:53;100644.06;;;12.25;70.13
69535;BME280;56754;51.568;5.048;2022-11-15T05:35:25;100637.94;;;12.25;70.08
69535;BME280;56754;51.568;5.048;2022-11-15T05:37:54;100643.28;;;12.25;70.00
69535;BME280;56754;51.568;5.048;2022-11-15T05:40:19;100650.22;;;12.26;70.14
69535;BME280;56754;51.568;5.048;2022-11-15T05:42:45;100642.47;;;12.24;69.87
69535;BME280;56754;51.568;5.048;2022-11-15T05:45:11;100647.06;;;12.24;70.06
69535;BME280;56754;51.568;5.048;2022-11-15T05:47:37;100652.09;;;12.25;70.04
69535;BME280;56754;51.568;5.048;2022-11-15T05:50:04;100658.56;;;12.24;70.17
69535;BME280;56754;51.568;5.048;2022-11-15T05:52:31;100654.00;;;12.25;69.99
69535;BME280;56754;51.568;5.048;2022-11-15T05:54:58;100652.09;;;12.25;70.33
69535;BME280;56754;51.568;5.048;2022-11-15T05:57:24;100652.88;;;12.26;70.10
69535;BME280;56754;51.568;5.048;2022-11-15T05:59:49;100655.56;;;12.26;70.29
69535;BME280;56754;51.568;5.048;2022-11-15T06:02:15;100661.72;;;12.26;70.18
69535;BME280;56754;51.568;5.048;2022-11-15T06:04:40;100658.25;;;12.26;70.39
69535;BME280;56754;51.568;5.048;2022-11-15T06:07:05;100663.59;;;12.26;70.38
69535;BME280;56754;51.568;5.048;2022-11-15T06:09:31;100655.25;;;12.27;70.29
69535;BME280;56754;51.568;5.048;2022-11-15T06:11:56;100653.34;;;12.28;70.36
69535;BME280;56754;51.568;5.048;2022-11-15T06:14:21;100653.34;;;12.28;70.21
69535;BME280;56754;51.568;5.048;2022-11-15T06:16:46;100649.56;;;12.29;70.52
69535;BME280;56754;51.568;5.048;2022-11-15T06:19:12;100657.13;;;12.27;70.38
69535;BME280;56754;51.568;5.048;2022-11-15T06:21:37;100661.41;;;12.28;70.27
69535;BME280;56754;51.568;5.048;2022-11-15T06:24:03;100664.84;;;12.28;70.26
69535;BME280;56754;51.568;5.048;2022-11-15T06:26:28;100661.41;;;12.28;70.30
69535;BME280;56754;51.568;5.048;2022-11-15T06:28:53;100666.75;;;12.28;70.42
69535;BME280;56754;51.568;5.048;2022-11-15T06:31:18;100665.63;;;12.29;70.11
69535;BME280;56754;51.568;5.048;2022-11-15T06:33:44;100671.00;;;12.29;70.22
69535;BME280;56754;51.568;5.048;2022-11-15T06:36:11;100673.69;;;12.29;70.38
69535;BME280;56754;51.568;5.048;2022-11-15T06:38:37;100671.00;;;12.29;70.32
69535;BME280;56754;51.568;5.048;2022-11-15T06:41:06;100681.72;;;12.29;70.28
69535;BME280;56754;51.568;5.048;2022-11-15T06:43:32;100672.91;;;12.28;70.22
69535;BME280;56754;51.568;5.048;2022-11-15T06:45:58;100665.63;;;12.29;70.58
69535;BME280;56754;51.568;5.048;2022-11-15T06:48:24;100677.13;;;12.29;70.23
69535;BME280;56754;51.568;5.048;2022-11-15T06:50:53;100676.34;;;12.29;70.37
69535;BME280;56754;51.568;5.048;2022-11-15T06:53:18;100688.63;;;12.30;70.46
69535;BME280;56754;51.568;5.048;2022-11-15T06:55:43;100682.50;;;12.29;70.66
69535;BME280;56754;51.568;5.048;2022-11-15T06:58:09;100678.25;;;12.28;70.44
69535;BME280;56754;51.568;5.048;2022-11-15T07:00:34;100680.94;;;12.28;70.26
69535;BME280;56754;51.568;5.048;2022-11-15T07:03:00;100689.75;;;12.29;70.31
69535;BME280;56754;51.568;5.048;2022-11-15T07:05:26;100685.50;;;12.28;70.29
69535;BME280;56754;51.568;5.048;2022-11-15T07:07:53;100679.38;;;12.27;70.46
69535;BME280;56754;51.568;5.048;2022-11-15T07:10:18;100678.56;;;12.27;70.24
69535;BME280;56754;51.568;5.048;2022-11-15T07:12:47;100679.38;;;12.27;70.58
69535;BME280;56754;51.568;5.048;2022-11-15T07:15:12;100683.94;;;12.27;70.35
69535;BME280;56754;51.568;5.048;2022-11-15T07:17:38;100685.50;;;12.28;70.52
69535;BME280;56754;51.568;5.048;2022-11-15T07:20:03;100682.06;;;12.27;70.55
69535;BME280;56754;51.568;5.048;2022-11-15T07:22:29;100683.16;;;12.26;70.25
69535;BME280;56754;51.568;5.048;2022-11-15T07:24:54;100683.94;;;12.27;70.24
69535;BME280;56754;51.568;5.048;2022-11-15T07:27:19;100678.56;;;12.27;70.32
69535;BME280;56754;51.568;5.048;2022-11-15T07:29:45;100678.56;;;12.27;70.47
69535;BME280;56754;51.568;5.048;2022-11-15T07:32:10;100684.75;;;12.27;70.59
69535;BME280;56754;51.568;5.048;2022-11-15T07:34:35;100678.56;;;12.27;70.40
69535;BME280;56754;51.568;5.048;2022-11-15T07:37:00;100677.47;;;12.28;70.37
69535;BME280;56754;51.568;5.048;2022-11-15T07:39:26;100680.94;;;12.28;70.56
69535;BME280;56754;51.568;5.048;2022-11-15T07:41:51;100688.19;;;12.28;70.30
69535;BME280;56754;51.568;5.048;2022-11-15T07:44:16;100688.63;;;12.30;70.34
69535;BME280;56754;51.568;5.048;2022-11-15T07:46:41;100685.97;;;12.30;70.55
69535;BME280;56754;51.568;5.048;2022-11-15T07:49:07;100690.22;;;12.31;70.37
69535;BME280;56754;51.568;5.048;2022-11-15T07:51:32;100698.25;;;12.31;70.49
69535;BME280;56754;51.568;5.048;2022-11-15T07:53:57;100706.31;;;12.31;70.54
69535;BME280;56754;51.568;5.048;2022-11-15T07:56:22;100694.81;;;12.31;70.27
69535;BME280;56754;51.568;5.048;2022-11-15T07:58:48;100697.16;;;12.32;70.66
69535;BME280;56754;51.568;5.048;2022-11-15T08:01:13;100696.03;;;12.33;70.57
69535;BME280;56754;51.568;5.048;2022-11-15T08:03:38;100689.56;;;12.34;70.55
69535;BME280;56754;51.568;5.048;2022-11-15T08:06:04;100681.53;;;12.34;70.49
69535;BME280;56754;51.568;5.048;2022-11-15T08:08:29;100681.19;;;12.36;70.42
69535;BME280;56754;51.568;5.048;2022-11-15T08:10:57;100677.44;;;12.37;70.51
69535;BME280;56754;51.568;5.048;2022-11-15T08:13:22;100674.41;;;12.38;70.55
69535;BME280;56754;51.568;5.048;2022-11-15T08:15:48;100674.09;;;12.40;70.38
69535;BME280;56754;51.568;5.048;2022-11-15T08:18:15;100681.03;;;12.41;70.55
69535;BME280;56754;51.568;5.048;2022-11-15T08:20:41;100672.66;;;12.42;70.53
69535;BME280;56754;51.568;5.048;2022-11-15T08:23:09;100680.38;;;12.44;70.43
69535;BME280;56754;51.568;5.048;2022-11-15T08:25:35;100671.22;;;12.45;70.15
69535;BME280;56754;51.568;5.048;2022-11-15T08:28:03;100669.34;;;12.45;70.22
69535;BME280;56754;51.568;5.048;2022-11-15T08:30:29;100664.41;;;12.47;70.34
69535;BME280;56754;51.568;5.048;2022-11-15T08:32:57;100671.69;;;12.47;70.46
69535;BME280;56754;51.568;5.048;2022-11-15T08:35:23;100674.50;;;12.50;70.46
69535;BME280;56754;51.568;5.048;2022-11-15T08:37:49;100665.34;;;12.51;70.22
69535;BME280;56754;51.568;5.048;2022-11-15T08:40:15;100660.00;;;12.51;70.22
69535;BME280;56754;51.568;5.048;2022-11-15T08:42:40;100665.00;;;12.53;70.17
69535;BME280;56754;51.568;5.048;2022-11-15T08:45:07;100654.75;;;12.55;70.21
69535;BME280;56754;51.568;5.048;2022-11-15T08:47:32;100651.28;;;12.55;70.46
69535;BME280;56754;51.568;5.048;2022-11-15T08:49:58;100649.06;;;12.57;70.13
69535;BME280;56754;51.568;5.048;2022-11-15T08:52:24;100643.69;;;12.57;70.23
69535;BME280;56754;51.568;5.048;2022-11-15T08:54:49;100640.69;;;12.58;70.22
69535;BME280;56754;51.568;5.048;2022-11-15T08:57:15;100636.13;;;12.59;70.15
69535;BME280;56754;51.568;5.048;2022-11-15T08:59:40;100638.50;;;12.60;70.52
69535;BME280;56754;51.568;5.048;2022-11-15T09:02:06;100633.13;;;12.60;70.45
69535;BME280;56754;51.568;5.048;2022-11-15T09:04:31;100624.72;;;12.62;70.20
69535;BME280;56754;51.568;5.048;2022-11-15T09:06:57;100626.28;;;12.63;70.32
69535;BME280;56754;51.568;5.048;2022-11-15T09:09:22;100633.25;;;12.64;70.23
69535;BME280;56754;51.568;5.048;2022-11-15T09:11:47;100628.66;;;12.64;70.51
69535;BME280;56754;51.568;5.048;2022-11-15T09:14:14;100629.44;;;12.65;70.29
69535;BME280;56754;51.568;5.048;2022-11-15T09:16:40;100621.41;;;12.65;70.39
69535;BME280;56754;51.568;5.048;2022-11-15T09:19:06;100621.09;;;12.66;70.28
69535;BME280;56754;51.568;5.048;2022-11-15T09:21:31;100628.78;;;12.68;70.45
69535;BME280;56754;51.568;5.048;2022-11-15T09:23:57;100626.56;;;12.70;70.13
69535;BME280;56754;51.568;5.048;2022-11-15T09:26:22;100622.00;;;12.70;70.00
69535;BME280;56754;51.568;5.048;2022-11-15T09:28:48;100616.31;;;12.72;70.06
69535;BME280;56754;51.568;5.048;2022-11-15T09:31:13;100611.38;;;12.74;69.83
69535;BME280;56754;51.568;5.048;2022-11-15T09:33:39;100599.56;;;12.75;70.02
69535;BME280;56754;51.568;5.048;2022-11-15T09:36:07;100615.31;;;12.77;69.76
69535;BME280;56754;51.568;5.048;2022-11-15T09:38:33;100612.31;;;12.78;69.84
69535;BME280;56754;51.568;5.048;2022-11-15T09:41:34;100616.56;;;12.79;69.62
69535;BME280;56754;51.568;5.048;2022-11-15T09:50:00;100624.41;;;12.84;69.60
69535;BME280;56754;51.568;5.048;2022-11-15T09:52:27;100620.13;;;12.83;69.54
69535;BME280;56754;51.568;5.048;2022-11-15T09:54:53;100612.09;;;12.83;69.33
69535;BME280;56754;51.568;5.048;2022-11-15T09:57:24;100610.22;;;12.84;69.36
69535;BME280;56754;51.568;5.048;2022-11-15T10:00:18;100609.09;;;12.85;69.45
69535;BME280;56754;51.568;5.048;2022-11-15T10:03:02;100620.13;;;12.83;69.50
69535;BME280;56754;51.568;5.048;2022-11-15T10:05:30;100630.09;;;12.83;69.06
69535;BME280;56754;51.568;5.048;2022-11-15T10:08:03;100616.69;;;12.83;69.14
69535;BME280;56754;51.568;5.048;2022-11-15T10:10:48;100605.94;;;12.83;69.05
69535;BME280;56754;51.568;5.048;2022-11-15T10:24:12;100577.22;;;12.83;68.80
69535;BME280;56754;51.568;5.048;2022-11-15T10:26:37;100572.97;;;12.82;68.58
69535;BME280;56754;51.568;5.048;2022-11-15T10:29:03;100570.31;;;12.82;68.59
69535;BME280;56754;51.568;5.048;2022-11-15T10:31:28;100568.09;;;12.84;68.83
69535;BME280;56754;51.568;5.048;2022-11-15T10:34:20;100575.00;;;12.85;68.63
69535;BME280;56754;51.568;5.048;2022-11-15T10:36:54;100569.63;;;12.85;68.50
69535;BME280;56754;51.568;5.048;2022-11-15T10:39:19;100563.16;;;12.86;68.49
69535;BME280;56754;51.568;5.048;2022-11-15T10:41:45;100563.16;;;12.86;68.61
69535;BME280;56754;51.568;5.048;2022-11-15T10:47:06;100552.88;;;12.88;68.35
69535;BME280;56754;51.568;5.048;2022-11-15T10:50:06;100555.56;;;12.88;68.31
69535;BME280;56754;51.568;5.048;2022-11-15T10:52:34;100546.41;;;12.89;68.29
69535;BME280;56754;51.568;5.048;2022-11-15T10:55:19;100547.97;;;12.90;68.56
69535;BME280;56754;51.568;5.048;2022-11-15T10:57:52;100546.84;;;12.91;68.33
69535;BME280;56754;51.568;5.048;2022-11-15T11:05:37;100518.59;;;12.94;68.16
69535;BME280;56754;51.568;5.048;2022-11-15T11:10:58;100510.22;;;12.95;67.93
69535;BME280;56754;51.568;5.048;2022-11-15T11:24:44;100472.09;;;13.02;67.48
69535;BME280;56754;51.568;5.048;2022-11-15T11:30:15;100476.03;;;13.05;67.49
69535;BME280;56754;51.568;5.048;2022-11-15T11:43:32;100437.13;;;13.11;67.30
69535;BME280;56754;51.568;5.048;2022-11-15T11:48:56;100431.09;;;13.14;67.40
69535;BME280;56754;51.568;5.048;2022-11-15T11:51:36;100427.72;;;13.17;67.31
69535;BME280;56754;51.568;5.048;2022-11-15T11:54:12;100426.59;;;13.18;67.36
69535;BME280;56754;51.568;5.048;2022-11-15T11:56:43;100412.50;;;13.21;67.17
69535;BME280;56754;51.568;5.048;2022-11-15T12:01:52;100409.16;;;13.24;67.12
69535;BME280;56754;51.568;5.048;2022-11-15T12:04:21;100402.38;;;13.27;67.08
69535;BME280;56754;51.568;5.048;2022-11-15T12:06:59;100405.50;;;13.29;66.88
69535;BME280;56754;51.568;5.048;2022-11-15T12:09:38;100394.09;;;13.32;67.04
69535;BME280;56754;51.568;5.048;2022-11-15T12:17:10;100396.19;;;13.38;66.96
69535;BME280;56754;51.568;5.048;2022-11-15T12:19:36;100391.28;;;13.40;66.85
69535;BME280;56754;51.568;5.048;2022-11-15T12:22:13;100386.69;;;13.41;66.85
69535;BME280;56754;51.568;5.048;2022-11-15T12:24:59;100383.34;;;13.44;66.80
69535;BME280;56754;51.568;5.048;2022-11-15T12:27:40;100388.34;;;13.46;66.78
69535;BME280;56754;51.568;5.048;2022-11-15T12:30:12;100382.66;;;13.47;66.68
69535;BME280;56754;51.568;5.048;2022-11-15T12:32:40;100360.81;;;13.49;66.33
69535;BME280;56754;51.568;5.048;2022-11-15T12:37:57;100374.69;;;13.51;66.49
69535;BME280;56754;51.568;5.048;2022-11-15T12:45:42;100341.38;;;13.52;66.22
69535;BME280;56754;51.568;5.048;2022-11-15T12:58:58;100324.13;;;13.53;66.32
69535;BME280;56754;51.568;5.048;2022-11-15T13:06:42;100313.84;;;13.55;66.34
69535;BME280;56754;51.568;5.048;2022-11-15T13:11:58;100307.66;;;13.54;66.37
69535;BME280;56754;51.568;5.048;2022-11-15T13:14:47;100300.41;;;13.55;66.36
69535;BME280;56754;51.568;5.048;2022-11-15T13:17:23;100294.25;;;13.54;66.40
69535;BME280;56754;51.568;5.048;2022-11-15T13:27:43;100281.63;;;13.55;66.32
69535;BME280;56754;51.568;5.048;2022-11-15T13:30:26;100270.88;;;13.55;66.24
69535;BME280;56754;51.568;5.048;2022-11-15T13:32:53;100262.03;;;13.54;66.33
69535;BME280;56754;51.568;5.048;2022-11-15T13:35:27;100257.47;;;13.55;66.33
69535;BME280;56754;51.568;5.048;2022-11-15T13:37:55;100256.66;;;13.54;66.27
69535;BME280;56754;51.568;5.048;2022-11-15T13:40:23;100246.72;;;13.55;66.19
69535;BME280;56754;51.568;5.048;2022-11-15T13:42:49;100246.72;;;13.55;66.26
69535;BME280;56754;51.568;5.048;2022-11-15T13:45:18;100229.47;;;13.56;66.22
69535;BME280;56754;51.568;5.048;2022-11-15T13:47:44;100231.38;;;13.55;66.34
69535;BME280;56754;51.568;5.048;2022-11-15T13:50:13;100228.69;;;13.55;66.25
69535;BME280;56754;51.568;5.048;2022-11-15T13:52:40;100225.25;;;13.55;66.37
69535;BME280;56754;51.568;5.048;2022-11-15T13:55:15;100224.44;;;13.54;66.28
69535;BME280;56754;51.568;5.048;2022-11-15T14:00:40;100212.16;;;13.53;66.35
69535;BME280;56754;51.568;5.048;2022-11-15T14:05:37;100199.84;;;13.52;66.31
69535;BME280;56754;51.568;5.048;2022-11-15T14:08:23;100198.28;;;13.51;66.24
69535;BME280;56754;51.568;5.048;2022-11-15T14:11:05;100198.28;;;13.51;66.37
69535;BME280;56754;51.568;5.048;2022-11-15T14:13:31;100186.75;;;13.51;66.21
69535;BME280;56754;51.568;5.048;2022-11-15T14:16:18;100184.06;;;13.51;66.15
69535;BME280;56754;51.568;5.048;2022-11-15T14:19:02;100185.97;;;13.50;66.32
69535;BME280;56754;51.568;5.048;2022-11-15T14:21:29;100174.81;;;13.48;66.35
69535;BME280;56754;51.568;5.048;2022-11-15T14:24:19;100172.88;;;13.49;66.20
69535;BME280;56754;51.568;5.048;2022-11-15T14:26:45;100169.09;;;13.50;66.28
69535;BME280;56754;51.568;5.048;2022-11-15T14:31:48;100157.91;;;13.48;66.44
69535;BME280;56754;51.568;5.048;2022-11-15T14:34:14;100152.56;;;13.48;66.44
69535;BME280;56754;51.568;5.048;2022-11-15T14:36:39;100148.72;;;13.49;66.41
69535;BME280;56754;51.568;5.048;2022-11-15T14:39:04;100145.28;;;13.48;66.48
69535;BME280;56754;51.568;5.048;2022-11-15T14:41:33;100143.72;;;13.47;66.45
69535;BME280;56754;51.568;5.048;2022-11-15T14:43:59;100141.03;;;13.47;66.42
69535;BME280;56754;51.568;5.048;2022-11-15T14:46:24;100133.75;;;13.48;66.54
69535;BME280;56754;51.568;5.048;2022-11-15T14:48:49;100123.78;;;13.48;66.38
69535;BME280;56754;51.568;5.048;2022-11-15T14:51:18;100128.38;;;13.48;66.19
69535;BME280;56754;51.568;5.048;2022-11-15T14:53:44;100132.22;;;13.47;66.40
69535;BME280;56754;51.568;5.048;2022-11-15T14:56:10;100118.78;;;13.47;66.35
69535;BME280;56754;51.568;5.048;2022-11-15T14:58:35;100108.81;;;13.47;66.39
69535;BME280;56754;51.568;5.048;2022-11-15T15:01:23;100108.03;;;13.47;66.34
69535;BME280;56754;51.568;5.048;2022-11-15T15:03:48;100106.13;;;13.47;66.53
69535;BME280;56754;51.568;5.048;2022-11-15T15:06:14;100101.91;;;13.46;66.54
69535;BME280;56754;51.568;5.048;2022-11-15T15:08:40;100102.69;;;13.47;66.54
69535;BME280;56754;51.568;5.048;2022-11-15T15:11:25;100095.41;;;13.47;66.48
69535;BME280;56754;51.568;5.048;2022-11-15T15:13:51;100098.41;;;13.46;66.61
69535;BME280;56754;51.568;5.048;2022-11-15T15:16:17;100093.84;;;13.46;66.43
69535;BME280;56754;51.568;5.048;2022-11-15T15:18:42;100093.03;;;13.46;66.48
69535;BME280;56754;51.568;5.048;2022-11-15T15:21:33;100086.91;;;13.45;66.43